Page, AZ

9:05 PM MST on February 05, 2016 (GMT -0700)
Page Municipal | | Change Station
CLOSE
Current Station
Airport
Location: Page,
Elevation: 4308 ft
Nearby Weather Stations

Elev 4308 ft 36.92 °N, 111.45 °W | Updated 12 minutes ago

Clear
Clear
33 °F
Feels Like 33 °F
N
0
Wind Variable Wind from North

Today
High -- | Low -- °F
--% Chance of Precip.
Yesterday
High -- | Low -- °F
Precip. -- in
Pressure 30.56 in
Visibility 10.0 miles
Clouds Clear
Dew Point 22 °F
Humidity 64%
Rainfall 0.00 in
Snow Depth Not available.
7:25 AM 5:55 PM
Waning Crescent, 8% visible
METAR KPGA 060353Z AUTO 00000KT 10SM CLR 01/M06 A3051 RMK AO2 SLP348 T00061056 TSNO
Pressure 30.56 in
Visibility 10.0 miles
Clouds Clear
Dew Point 22 °F
Humidity 64%
Rainfall 0.00 in
Snow Depth Not available.
7:25 AM 5:55 PM
Waning Crescent, 8% visible
METAR KPGA 060353Z AUTO 00000KT 10SM CLR 01/M06 A3051 RMK AO2 SLP348 T00061056 TSNO

10-Day Weather Forecast

Almanac

Astronomy

Feb. 05, 2016 Rise Set
Actual Time
Civil Twilight
Nautical Twilight
Astronomical Twilight
Moon
Length of Visible Light
Length of Day
Tomorrow will be .
, % of the Moon is Illuminated

Today's Extremes

State Highs State Lows

Community

WunderPhotos

Upload Photos

1,890,916 photos uploaded!

WunderBlog® & News

Nearby

Air Quality

  Air Quality AQ Index Pollutant
Not available.

Snow Depth

Station Depth Elevation

Earthquake Activity

City Distance Mag. Time & Date
Minimum magnitude displayed is 2.5.

Coastal Water Temperatures

Place Temperature

Stations

Nearby Weather Stations

Station Location Temp. Windchill Dew Point Humidity Wind Precip. Elev Updated Type
                   

Watches & Warnings

There are currently no watches in effect.